sensor_id;sensor_type;location;lat;lon;timestamp;pressure;altitude;pressure_sealevel;temperature;humidity
61345;BME280;47216;42.656;23.232;2022-10-31T00:00:06;94415.34;;;11.24;64.92
61345;BME280;47216;42.656;23.232;2022-10-31T00:02:33;94410.03;;;11.19;64.82
61345;BME280;47216;42.656;23.232;2022-10-31T00:05:00;94415.34;;;11.24;64.90
61345;BME280;47216;42.656;23.232;2022-10-31T00:07:27;94404.75;;;11.14;64.60
61345;BME280;47216;42.656;23.232;2022-10-31T00:09:53;94403.13;;;11.13;64.67
61345;BME280;47216;42.656;23.232;2022-10-31T00:12:22;94395.88;;;11.15;65.10
61345;BME280;47216;42.656;23.232;2022-10-31T00:14:48;94404.97;;;11.12;64.59
61345;BME280;47216;42.656;23.232;2022-10-31T00:17:15;94414.38;;;11.13;64.90
61345;BME280;47216;42.656;23.232;2022-10-31T00:19:42;94404.75;;;11.14;64.83
61345;BME280;47216;42.656;23.232;2022-10-31T00:22:09;94403.47;;;11.17;65.09
61345;BME280;47216;42.656;23.232;2022-10-31T00:24:36;94409.47;;;11.17;64.91
61345;BME280;47216;42.656;23.232;2022-10-31T00:27:02;94412.09;;;11.17;64.94
61345;BME280;47216;42.656;23.232;2022-10-31T00:29:31;94407.84;;;11.28;64.65
61345;BME280;47216;42.656;23.232;2022-10-31T00:31:57;94408.91;;;11.32;64.47
61345;BME280;47216;42.656;23.232;2022-10-31T00:34:24;94406.09;;;11.17;64.82
61345;BME280;47216;42.656;23.232;2022-10-31T00:36:51;94400.88;;;11.17;64.67
61345;BME280;47216;42.656;23.232;2022-10-31T00:39:18;94406.47;;;11.08;65.32
61345;BME280;47216;42.656;23.232;2022-10-31T00:41:44;94405.19;;;11.11;65.24
61345;BME280;47216;42.656;23.232;2022-10-31T00:44:11;94408.66;;;11.00;65.63
61345;BME280;47216;42.656;23.232;2022-10-31T00:46:39;94393.97;;;10.93;65.93
61345;BME280;47216;42.656;23.232;2022-10-31T00:49:06;94401.38;;;10.85;66.23
61345;BME280;47216;42.656;23.232;2022-10-31T00:51:33;94398.34;;;10.76;66.54
61345;BME280;47216;42.656;23.232;2022-10-31T00:54:00;94401.34;;;10.68;66.97
61345;BME280;47216;42.656;23.232;2022-10-31T00:56:26;94392.97;;;10.66;66.96
61345;BME280;47216;42.656;23.232;2022-10-31T00:58:53;94394.78;;;10.65;66.59
61345;BME280;47216;42.656;23.232;2022-10-31T01:01:20;94395.38;;;10.56;67.45
61345;BME280;47216;42.656;23.232;2022-10-31T01:03:48;94401.16;;;10.58;67.74
61345;BME280;47216;42.656;23.232;2022-10-31T01:06:15;94394.44;;;10.62;67.46
61345;BME280;47216;42.656;23.232;2022-10-31T01:08:42;94406.06;;;10.54;67.54
61345;BME280;47216;42.656;23.232;2022-10-31T01:11:11;94402.88;;;10.52;67.77
61345;BME280;47216;42.656;23.232;2022-10-31T01:13:38;94409.44;;;10.55;67.25
61345;BME280;47216;42.656;23.232;2022-10-31T01:16:07;94396.63;;;10.53;67.39
61345;BME280;47216;42.656;23.232;2022-10-31T01:18:35;94405.06;;;10.43;67.65
61345;BME280;47216;42.656;23.232;2022-10-31T01:21:05;94413.09;;;10.42;68.24
61345;BME280;47216;42.656;23.232;2022-10-31T01:23:32;94416.75;;;10.41;68.31
61345;BME280;47216;42.656;23.232;2022-10-31T01:26:05;94409.63;;;10.36;68.23
61345;BME280;47216;42.656;23.232;2022-10-31T01:28:32;94403.38;;;10.37;68.23
61345;BME280;47216;42.656;23.232;2022-10-31T01:31:01;94410.75;;;10.40;68.21
61345;BME280;47216;42.656;23.232;2022-10-31T01:33:28;94402.47;;;10.43;68.80
61345;BME280;47216;42.656;23.232;2022-10-31T01:35:55;94404.84;;;10.45;68.20
61345;BME280;47216;42.656;23.232;2022-10-31T01:38:23;94400.75;;;10.49;68.20
61345;BME280;47216;42.656;23.232;2022-10-31T01:40:51;94400.50;;;10.50;68.70
61345;BME280;47216;42.656;23.232;2022-10-31T01:43:18;94404.94;;;10.50;68.48
61345;BME280;47216;42.656;23.232;2022-10-31T01:45:51;94410.38;;;10.48;68.83
61345;BME280;47216;42.656;23.232;2022-10-31T01:48:23;94406.84;;;10.55;69.00
61345;BME280;47216;42.656;23.232;2022-10-31T01:50:53;94408.41;;;10.56;68.41
61345;BME280;47216;42.656;23.232;2022-10-31T01:53:23;94410.31;;;10.60;68.80
61345;BME280;47216;42.656;23.232;2022-10-31T01:55:50;94403.41;;;10.66;68.67
61345;BME280;47216;42.656;23.232;2022-10-31T01:58:20;94403.72;;;10.69;68.53
61345;BME280;47216;42.656;23.232;2022-10-31T02:00:51;94408.78;;;10.76;68.98
61345;BME280;47216;42.656;23.232;2022-10-31T02:03:20;94395.13;;;10.86;68.49
61345;BME280;47216;42.656;23.232;2022-10-31T02:05:48;94397.50;;;11.04;68.13
61345;BME280;47216;42.656;23.232;2022-10-31T02:08:19;94405.13;;;11.06;67.89
61345;BME280;47216;42.656;23.232;2022-10-31T02:10:49;94395.94;;;11.03;68.16
61345;BME280;47216;42.656;23.232;2022-10-31T02:13:17;94396.81;;;11.09;68.02
61345;BME280;47216;42.656;23.232;2022-10-31T02:15:47;94400.94;;;11.05;68.26
61345;BME280;47216;42.656;23.232;2022-10-31T02:18:17;94395.78;;;11.10;68.30
61345;BME280;47216;42.656;23.232;2022-10-31T02:20:49;94391.06;;;11.07;68.24
61345;BME280;47216;42.656;23.232;2022-10-31T02:23:30;94394.53;;;10.96;69.03
61345;BME280;47216;42.656;23.232;2022-10-31T02:29:08;94405.03;;;11.01;68.36
61345;BME280;47216;42.656;23.232;2022-10-31T02:31:45;94407.56;;;10.96;68.83
61345;BME280;47216;42.656;23.232;2022-10-31T02:34:18;94407.72;;;11.06;68.95
61345;BME280;47216;42.656;23.232;2022-10-31T02:36:52;94414.69;;;11.17;68.90
61345;BME280;47216;42.656;23.232;2022-10-31T02:39:24;94409.47;;;11.17;68.66
61345;BME280;47216;42.656;23.232;2022-10-31T02:42:02;94419.13;;;11.33;68.37
61345;BME280;47216;42.656;23.232;2022-10-31T02:44:44;94416.75;;;11.49;68.25
61345;BME280;47216;42.656;23.232;2022-10-31T02:47:15;94423.25;;;11.63;67.74
61345;BME280;47216;42.656;23.232;2022-10-31T02:49:47;94418.31;;;11.67;67.57
61345;BME280;47216;42.656;23.232;2022-10-31T02:52:20;94422.53;;;11.68;67.25
61345;BME280;47216;42.656;23.232;2022-10-31T02:54:48;94423.84;;;11.70;67.61
61345;BME280;47216;42.656;23.232;2022-10-31T02:57:17;94419.25;;;11.77;67.11
61345;BME280;47216;42.656;23.232;2022-10-31T02:59:49;94427.50;;;11.69;67.25
61345;BME280;47216;42.656;23.232;2022-10-31T03:02:45;94425.63;;;11.65;67.73
61345;BME280;47216;42.656;23.232;2022-10-31T03:05:41;94425.06;;;11.63;67.75
61345;BME280;47216;42.656;23.232;2022-10-31T03:08:20;94429.97;;;11.59;67.70
61345;BME280;47216;42.656;23.232;2022-10-31T03:10:53;94436.28;;;11.63;67.69
61345;BME280;47216;42.656;23.232;2022-10-31T03:13:28;94435.25;;;11.64;67.81
61345;BME280;47216;42.656;23.232;2022-10-31T03:16:07;94434.63;;;11.57;68.25
61345;BME280;47216;42.656;23.232;2022-10-31T03:18:40;94437.78;;;11.59;68.41
61345;BME280;47216;42.656;23.232;2022-10-31T03:21:10;94439.22;;;11.50;68.45
61345;BME280;47216;42.656;23.232;2022-10-31T03:23:39;94437.66;;;11.49;68.67
61345;BME280;47216;42.656;23.232;2022-10-31T03:26:08;94435.59;;;11.51;68.65
61345;BME280;47216;42.656;23.232;2022-10-31T03:28:38;94435.81;;;11.49;68.69
61345;BME280;47216;42.656;23.232;2022-10-31T03:31:09;94437.81;;;11.42;69.15
61345;BME280;47216;42.656;23.232;2022-10-31T03:33:39;94447.00;;;11.45;68.75
61345;BME280;47216;42.656;23.232;2022-10-31T03:36:09;94443.25;;;11.41;68.96
61345;BME280;47216;42.656;23.232;2022-10-31T03:38:38;94456.31;;;11.41;68.97
61345;BME280;47216;42.656;23.232;2022-10-31T03:41:07;94448.97;;;11.38;68.94
61345;BME280;47216;42.656;23.232;2022-10-31T03:43:40;94453.94;;;11.22;69.45
61345;BME280;47216;42.656;23.232;2022-10-31T03:46:08;94451.56;;;11.21;69.54
61345;BME280;47216;42.656;23.232;2022-10-31T03:48:35;94456.88;;;11.26;69.35
61345;BME280;47216;42.656;23.232;2022-10-31T03:51:07;94452.00;;;11.01;70.18
61345;BME280;47216;42.656;23.232;2022-10-31T03:53:39;94457.22;;;11.01;70.52
61345;BME280;47216;42.656;23.232;2022-10-31T03:56:11;94461.41;;;11.02;70.31
61345;BME280;47216;42.656;23.232;2022-10-31T03:58:44;94456.19;;;11.02;70.58
61345;BME280;47216;42.656;23.232;2022-10-31T04:01:15;94456.75;;;11.04;70.60
61345;BME280;47216;42.656;23.232;2022-10-31T04:03:44;94457.94;;;11.13;70.44
61345;BME280;47216;42.656;23.232;2022-10-31T04:06:14;94461.03;;;11.10;70.14
61345;BME280;47216;42.656;23.232;2022-10-31T04:08:46;94465.69;;;11.08;70.28
61345;BME280;47216;42.656;23.232;2022-10-31T04:11:16;94474.09;;;11.10;70.16
61345;BME280;47216;42.656;23.232;2022-10-31T04:13:46;94470.84;;;11.03;70.21
61345;BME280;47216;42.656;23.232;2022-10-31T04:16:15;94460.53;;;10.96;70.52
61345;BME280;47216;42.656;23.232;2022-10-31T04:18:43;94467.59;;;10.96;70.56
61345;BME280;47216;42.656;23.232;2022-10-31T04:21:10;94469.22;;;10.85;70.88
61345;BME280;47216;42.656;23.232;2022-10-31T04:23:38;94467.78;;;10.77;71.44
61345;BME280;47216;42.656;23.232;2022-10-31T04:26:05;94470.13;;;10.79;71.84
61345;BME280;47216;42.656;23.232;2022-10-31T04:28:32;94477.72;;;10.80;71.65
61345;BME280;47216;42.656;23.232;2022-10-31T04:30:59;94470.47;;;10.82;71.65
61345;BME280;47216;42.656;23.232;2022-10-31T04:33:26;94465.91;;;10.89;71.84
61345;BME280;47216;42.656;23.232;2022-10-31T04:35:52;94464.28;;;11.00;71.53
61345;BME280;47216;42.656;23.232;2022-10-31T04:38:19;94464.22;;;11.12;71.60
61345;BME280;47216;42.656;23.232;2022-10-31T04:40:47;94468.81;;;11.22;70.91
61345;BME280;47216;42.656;23.232;2022-10-31T04:43:14;94469.75;;;11.15;71.08
61345;BME280;47216;42.656;23.232;2022-10-31T04:45:41;94471.34;;;11.17;71.10
61345;BME280;47216;42.656;23.232;2022-10-31T04:48:08;94472.69;;;11.19;71.16
61345;BME280;47216;42.656;23.232;2022-10-31T04:50:34;94474.81;;;11.22;71.24
61345;BME280;47216;42.656;23.232;2022-10-31T04:53:01;94473.41;;;11.31;71.19
61345;BME280;47216;42.656;23.232;2022-10-31T04:55:28;94477.06;;;11.30;71.26
61345;BME280;47216;42.656;23.232;2022-10-31T04:57:56;94479.09;;;11.28;71.26
61345;BME280;47216;42.656;23.232;2022-10-31T05:00:23;94488.06;;;11.32;71.38
61345;BME280;47216;42.656;23.232;2022-10-31T05:02:52;94486.53;;;11.36;71.73
61345;BME280;47216;42.656;23.232;2022-10-31T05:05:21;94488.22;;;11.43;71.46
61345;BME280;47216;42.656;23.232;2022-10-31T05:07:48;94485.38;;;11.44;71.54
61345;BME280;47216;42.656;23.232;2022-10-31T05:10:17;94491.31;;;11.40;71.53
61345;BME280;47216;42.656;23.232;2022-10-31T05:12:47;94491.94;;;11.47;71.62
61345;BME280;47216;42.656;23.232;2022-10-31T05:15:17;94490.34;;;11.46;71.52
61345;BME280;47216;42.656;23.232;2022-10-31T05:17:44;94501.19;;;11.54;71.27
61345;BME280;47216;42.656;23.232;2022-10-31T05:20:12;94504.06;;;11.53;71.49
61345;BME280;47216;42.656;23.232;2022-10-31T05:22:42;94499.63;;;11.53;71.58
61345;BME280;47216;42.656;23.232;2022-10-31T05:25:10;94505.56;;;11.49;71.84
61345;BME280;47216;42.656;23.232;2022-10-31T05:27:39;94505.41;;;11.55;71.51
61345;BME280;47216;42.656;23.232;2022-10-31T05:30:06;94502.53;;;11.57;72.24
61345;BME280;47216;42.656;23.232;2022-10-31T05:32:38;94498.44;;;11.61;71.81
61345;BME280;47216;42.656;23.232;2022-10-31T05:35:08;94506.34;;;11.66;71.62
61345;BME280;47216;42.656;23.232;2022-10-31T05:37:35;94504.63;;;11.72;71.18
61345;BME280;47216;42.656;23.232;2022-10-31T05:40:02;94510.44;;;11.62;71.44
61345;BME280;47216;42.656;23.232;2022-10-31T05:42:29;94516.78;;;11.66;71.09
61345;BME280;47216;42.656;23.232;2022-10-31T05:44:56;94513.81;;;11.74;71.28
61345;BME280;47216;42.656;23.232;2022-10-31T05:47:23;94514.25;;;11.71;71.40
61345;BME280;47216;42.656;23.232;2022-10-31T05:49:51;94525.03;;;11.75;70.84
61345;BME280;47216;42.656;23.232;2022-10-31T05:52:18;94513.16;;;11.84;70.80
61345;BME280;47216;42.656;23.232;2022-10-31T05:54:46;94515.53;;;11.86;70.79
61345;BME280;47216;42.656;23.232;2022-10-31T05:57:13;94516.13;;;11.88;70.43
61345;BME280;47216;42.656;23.232;2022-10-31T05:59:40;94530.19;;;11.87;70.65
61345;BME280;47216;42.656;23.232;2022-10-31T06:02:09;94525.53;;;11.89;70.78
61345;BME280;47216;42.656;23.232;2022-10-31T06:04:36;94521.00;;;12.01;70.35
61345;BME280;47216;42.656;23.232;2022-10-31T06:07:04;94533.78;;;11.97;70.31
61345;BME280;47216;42.656;23.232;2022-10-31T06:09:34;94522.59;;;12.02;70.17
61345;BME280;47216;42.656;23.232;2022-10-31T06:12:01;94535.88;;;12.17;69.53
61345;BME280;47216;42.656;23.232;2022-10-31T06:14:28;94536.44;;;12.19;69.62
61345;BME280;47216;42.656;23.232;2022-10-31T06:16:55;94534.31;;;12.16;69.59
61345;BME280;47216;42.656;23.232;2022-10-31T06:19:22;94536.13;;;12.16;69.83
61345;BME280;47216;42.656;23.232;2022-10-31T06:21:49;94538.16;;;12.31;69.42
61345;BME280;47216;42.656;23.232;2022-10-31T06:24:17;94538.31;;;12.41;69.29
61345;BME280;47216;42.656;23.232;2022-10-31T06:26:44;94548.34;;;12.49;68.95
61345;BME280;47216;42.656;23.232;2022-10-31T06:29:10;94550.13;;;12.66;68.03
61345;BME280;47216;42.656;23.232;2022-10-31T06:31:37;94551.22;;;12.70;68.31
61345;BME280;47216;42.656;23.232;2022-10-31T06:34:04;94556.13;;;12.83;67.92
61345;BME280;47216;42.656;23.232;2022-10-31T06:36:31;94550.53;;;12.96;67.50
61345;BME280;47216;42.656;23.232;2022-10-31T06:38:57;94550.56;;;13.01;67.28
61345;BME280;47216;42.656;23.232;2022-10-31T06:41:26;94553.00;;;13.08;67.29
61345;BME280;47216;42.656;23.232;2022-10-31T06:43:52;94552.56;;;13.16;66.86
61345;BME280;47216;42.656;23.232;2022-10-31T06:46:19;94559.72;;;13.26;66.48
61345;BME280;47216;42.656;23.232;2022-10-31T06:48:46;94558.53;;;13.34;66.95
61345;BME280;47216;42.656;23.232;2022-10-31T06:51:12;94560.56;;;13.54;65.57
61345;BME280;47216;42.656;23.232;2022-10-31T06:53:39;94553.34;;;13.66;65.57
61345;BME280;47216;42.656;23.232;2022-10-31T06:56:06;94558.16;;;13.79;65.43
61345;BME280;47216;42.656;23.232;2022-10-31T06:58:35;94559.59;;;13.92;65.56
61345;BME280;47216;42.656;23.232;2022-10-31T07:01:01;94557.84;;;14.03;65.32
61345;BME280;47216;42.656;23.232;2022-10-31T07:03:28;94558.41;;;14.10;65.29
61345;BME280;47216;42.656;23.232;2022-10-31T07:05:55;94553.22;;;14.20;65.01
61345;BME280;47216;42.656;23.232;2022-10-31T07:08:24;94560.38;;;14.30;64.75
61345;BME280;47216;42.656;23.232;2022-10-31T07:10:52;94558.63;;;14.41;65.34
61345;BME280;47216;42.656;23.232;2022-10-31T07:13:19;94562.88;;;14.47;64.77
61345;BME280;47216;42.656;23.232;2022-10-31T07:15:52;94562.94;;;14.57;64.33
61345;BME280;47216;42.656;23.232;2022-10-31T07:18:20;94570.34;;;14.65;63.84
61345;BME280;47216;42.656;23.232;2022-10-31T07:20:47;94565.66;;;14.78;62.67
61345;BME280;47216;42.656;23.232;2022-10-31T07:23:14;94564.69;;;14.89;61.92
61345;BME280;47216;42.656;23.232;2022-10-31T07:25:41;94562.06;;;14.94;61.77
61345;BME280;47216;42.656;23.232;2022-10-31T07:28:08;94549.00;;;15.09;64.22
61345;BME280;47216;42.656;23.232;2022-10-31T07:30:35;94554.03;;;15.26;62.51
61345;BME280;47216;42.656;23.232;2022-10-31T07:33:04;94541.19;;;15.35;61.51
61345;BME280;47216;42.656;23.232;2022-10-31T07:35:31;94544.59;;;15.30;61.21
61345;BME280;47216;42.656;23.232;2022-10-31T07:38:06;94532.78;;;15.33;61.48
61345;BME280;47216;42.656;23.232;2022-10-31T07:40:33;94539.63;;;15.39;61.20
61345;BME280;47216;42.656;23.232;2022-10-31T07:43:03;94546.44;;;15.45;60.98
61345;BME280;47216;42.656;23.232;2022-10-31T07:45:30;94540.16;;;15.41;61.41
61345;BME280;47216;42.656;23.232;2022-10-31T07:47:57;94540.16;;;15.51;61.05
61345;BME280;47216;42.656;23.232;2022-10-31T07:50:28;94545.41;;;15.57;60.96
61345;BME280;47216;42.656;23.232;2022-10-31T07:52:58;94538.34;;;15.67;60.90
61345;BME280;47216;42.656;23.232;2022-10-31T07:55:26;94534.44;;;15.85;60.82
61345;BME280;47216;42.656;23.232;2022-10-31T07:57:57;94535.47;;;16.05;58.99
61345;BME280;47216;42.656;23.232;2022-10-31T08:00:24;94532.84;;;16.15;58.57
61345;BME280;47216;42.656;23.232;2022-10-31T08:02:57;94535.47;;;16.05;58.90
61345;BME280;47216;42.656;23.232;2022-10-31T08:05:25;94539.16;;;16.14;58.93
61345;BME280;47216;42.656;23.232;2022-10-31T08:07:52;94541.50;;;16.26;58.70
61345;BME280;47216;42.656;23.232;2022-10-31T08:10:19;94542.31;;;16.31;58.30
61345;BME280;47216;42.656;23.232;2022-10-31T08:12:45;94542.00;;;16.38;58.51
61345;BME280;47216;42.656;23.232;2022-10-31T08:15:12;94541.22;;;16.53;58.50
61345;BME280;47216;42.656;23.232;2022-10-31T08:17:39;94541.69;;;16.75;57.42
61345;BME280;47216;42.656;23.232;2022-10-31T08:20:07;94541.16;;;16.73;57.35
61345;BME280;47216;42.656;23.232;2022-10-31T08:29:35;94545.31;;;16.95;57.18
61345;BME280;47216;42.656;23.232;2022-10-31T08:32:02;94539.47;;;17.08;56.54
61345;BME280;47216;42.656;23.232;2022-10-31T08:34:29;94538.09;;;17.16;56.06
61345;BME280;47216;42.656;23.232;2022-10-31T08:36:55;94538.88;;;17.21;56.14
61345;BME280;47216;42.656;23.232;2022-10-31T08:39:22;94546.28;;;17.19;56.25
61345;BME280;47216;42.656;23.232;2022-10-31T08:41:50;94548.09;;;17.24;56.56
61345;BME280;47216;42.656;23.232;2022-10-31T08:44:17;94546.22;;;17.30;56.73
61345;BME280;47216;42.656;23.232;2022-10-31T08:46:45;94544.88;;;17.32;56.95
61345;BME280;47216;42.656;23.232;2022-10-31T08:49:12;94541.38;;;17.47;56.72
61345;BME280;47216;42.656;23.232;2022-10-31T08:51:38;94541.34;;;17.52;56.40
61345;BME280;47216;42.656;23.232;2022-10-31T08:54:05;94539.75;;;17.51;56.18
61345;BME280;47216;42.656;23.232;2022-10-31T08:56:32;94542.84;;;17.63;55.86
61345;BME280;47216;42.656;23.232;2022-10-31T08:58:59;94536.28;;;17.56;55.56
61345;BME280;47216;42.656;23.232;2022-10-31T09:01:26;94541.78;;;17.64;55.48
61345;BME280;47216;42.656;23.232;2022-10-31T09:03:54;94544.91;;;17.72;55.24
61345;BME280;47216;42.656;23.232;2022-10-31T09:06:21;94535.91;;;17.78;54.95
61345;BME280;47216;42.656;23.232;2022-10-31T09:08:48;94545.28;;;17.94;54.83
61345;BME280;47216;42.656;23.232;2022-10-31T09:11:15;94549.38;;;18.11;54.00
61345;BME280;47216;42.656;23.232;2022-10-31T09:13:42;94538.38;;;18.03;54.21
61345;BME280;47216;42.656;23.232;2022-10-31T09:16:09;94548.34;;;18.12;54.04
61345;BME280;47216;42.656;23.232;2022-10-31T09:18:35;94541.34;;;18.26;53.67
61345;BME280;47216;42.656;23.232;2022-10-31T09:21:04;94539.22;;;18.28;53.82
61345;BME280;47216;42.656;23.232;2022-10-31T09:23:31;94533.88;;;18.33;53.62
61345;BME280;47216;42.656;23.232;2022-10-31T09:25:59;94527.97;;;18.41;53.42
61345;BME280;47216;42.656;23.232;2022-10-31T09:28:27;94528.16;;;18.50;53.54
61345;BME280;47216;42.656;23.232;2022-10-31T09:30:54;94531.25;;;18.57;53.38
61345;BME280;47216;42.656;23.232;2022-10-31T09:33:21;94525.38;;;18.65;53.10
61345;BME280;47216;42.656;23.232;2022-10-31T09:35:48;94524.22;;;18.77;52.39
61345;BME280;47216;42.656;23.232;2022-10-31T09:38:17;94523.88;;;18.83;52.89
61345;BME280;47216;42.656;23.232;2022-10-31T09:40:47;94522.03;;;18.84;52.66
61345;BME280;47216;42.656;23.232;2022-10-31T09:43:19;94522.47;;;18.91;52.57
61345;BME280;47216;42.656;23.232;2022-10-31T09:45:56;94523.41;;;19.00;53.14
61345;BME280;47216;42.656;23.232;2022-10-31T09:48:53;94520.50;;;19.02;52.11
61345;BME280;47216;42.656;23.232;2022-10-31T09:51:25;94525.63;;;19.12;51.58
61345;BME280;47216;42.656;23.232;2022-10-31T09:54:00;94525.97;;;19.29;50.82
61345;BME280;47216;42.656;23.232;2022-10-31T09:56:30;94524.66;;;19.27;50.48
61345;BME280;47216;42.656;23.232;2022-10-31T09:58:59;94523.78;;;19.31;51.61
61345;BME280;47216;42.656;23.232;2022-10-31T10:01:34;94506.66;;;19.48;50.71
61345;BME280;47216;42.656;23.232;2022-10-31T10:04:14;94513.66;;;19.39;50.73
61345;BME280;47216;42.656;23.232;2022-10-31T10:06:47;94510.59;;;19.50;50.67
61345;BME280;47216;42.656;23.232;2022-10-31T10:09:18;94515.72;;;19.42;50.06
61345;BME280;47216;42.656;23.232;2022-10-31T10:11:54;94508.22;;;19.49;50.26
61345;BME280;47216;42.656;23.232;2022-10-31T10:14:41;94510.66;;;19.64;49.94
61345;BME280;47216;42.656;23.232;2022-10-31T10:17:18;94499.25;;;19.64;49.45
61345;BME280;47216;42.656;23.232;2022-10-31T10:20:07;94506.41;;;19.82;48.46
61345;BME280;47216;42.656;23.232;2022-10-31T10:22:43;94500.75;;;19.89;48.16
61345;BME280;47216;42.656;23.232;2022-10-31T10:25:20;94500.19;;;19.92;47.87
61345;BME280;47216;42.656;23.232;2022-10-31T10:27:56;94493.16;;;20.01;47.84
61345;BME280;47216;42.656;23.232;2022-10-31T10:30:30;94495.41;;;20.08;47.90
61345;BME280;47216;42.656;23.232;2022-10-31T10:33:03;94484.53;;;20.09;48.24
61345;BME280;47216;42.656;23.232;2022-10-31T10:35:33;94485.16;;;20.20;47.98
61345;BME280;47216;42.656;23.232;2022-10-31T10:38:03;94487.44;;;20.27;46.64
61345;BME280;47216;42.656;23.232;2022-10-31T10:40:37;94475.97;;;20.31;46.31
61345;BME280;47216;42.656;23.232;2022-10-31T10:43:18;94475.97;;;20.45;46.52
61345;BME280;47216;42.656;23.232;2022-10-31T10:45:50;94474.59;;;20.48;47.04
61345;BME280;47216;42.656;23.232;2022-10-31T10:48:42;94474.28;;;20.49;45.98
61345;BME280;47216;42.656;23.232;2022-10-31T10:51:18;94466.38;;;20.63;45.91
61345;BME280;47216;42.656;23.232;2022-10-31T10:53:58;94462.25;;;20.71;46.74
61345;BME280;47216;42.656;23.232;2022-10-31T10:56:36;94464.41;;;20.83;46.93
61345;BME280;47216;42.656;23.232;2022-10-31T10:59:09;94462.63;;;20.78;46.64
61345;BME280;47216;42.656;23.232;2022-10-31T11:01:39;94461.25;;;20.81;46.21
61345;BME280;47216;42.656;23.232;2022-10-31T11:04:20;94461.03;;;20.91;46.64
61345;BME280;47216;42.656;23.232;2022-10-31T11:06:57;94464.38;;;20.96;46.37
61345;BME280;47216;42.656;23.232;2022-10-31T11:09:24;94463.19;;;21.03;45.99
61345;BME280;47216;42.656;23.232;2022-10-31T11:11:53;94463.09;;;21.08;44.85
61345;BME280;47216;42.656;23.232;2022-10-31T11:14:21;94453.94;;;21.14;44.64
61345;BME280;47216;42.656;23.232;2022-10-31T11:16:51;94457.44;;;21.23;44.18
61345;BME280;47216;42.656;23.232;2022-10-31T11:19:21;94449.94;;;21.39;43.94
61345;BME280;47216;42.656;23.232;2022-10-31T11:21:49;94442.69;;;21.45;43.86
61345;BME280;47216;42.656;23.232;2022-10-31T11:24:18;94445.22;;;21.50;43.47
61345;BME280;47216;42.656;23.232;2022-10-31T11:26:47;94440.03;;;21.45;43.50
61345;BME280;47216;42.656;23.232;2022-10-31T11:29:19;94439.78;;;21.55;43.24
61345;BME280;47216;42.656;23.232;2022-10-31T11:31:47;94444.00;;;21.56;42.46
61345;BME280;47216;42.656;23.232;2022-10-31T11:34:27;94439.91;;;21.72;42.43
61345;BME280;47216;42.656;23.232;2022-10-31T11:37:00;94440.63;;;21.87;42.10
61345;BME280;47216;42.656;23.232;2022-10-31T11:39:28;94436.38;;;21.86;43.05
61345;BME280;47216;42.656;23.232;2022-10-31T11:41:59;94435.00;;;21.88;42.61
61345;BME280;47216;42.656;23.232;2022-10-31T11:44:29;94442.31;;;21.82;42.29
61345;BME280;47216;42.656;23.232;2022-10-31T11:46:59;94434.03;;;21.84;42.76
61345;BME280;47216;42.656;23.232;2022-10-31T11:49:30;94436.38;;;21.86;43.06
61345;BME280;47216;42.656;23.232;2022-10-31T11:52:05;94435.31;;;21.87;43.67
61345;BME280;47216;42.656;23.232;2022-10-31T11:54:39;94436.63;;;21.98;42.25
61345;BME280;47216;42.656;23.232;2022-10-31T11:57:22;94423.00;;;21.91;42.28
61345;BME280;47216;42.656;23.232;2022-10-31T11:59:53;94425.50;;;21.96;42.63
61345;BME280;47216;42.656;23.232;2022-10-31T12:02:20;94419.44;;;21.95;42.59
61345;BME280;47216;42.656;23.232;2022-10-31T12:04:51;94421.19;;;22.09;42.78
61345;BME280;47216;42.656;23.232;2022-10-31T12:07:19;94418.94;;;22.24;42.79
61345;BME280;47216;42.656;23.232;2022-10-31T12:09:46;94416.28;;;22.24;42.65
61345;BME280;47216;42.656;23.232;2022-10-31T12:12:33;94423.84;;;22.09;42.17
61345;BME280;47216;42.656;23.232;2022-10-31T12:15:19;94414.38;;;22.16;41.56
61345;BME280;47216;42.656;23.232;2022-10-31T12:17:53;94417.25;;;22.29;42.22
61345;BME280;47216;42.656;23.232;2022-10-31T12:20:28;94418.22;;;22.33;42.14
61345;BME280;47216;42.656;23.232;2022-10-31T12:23:05;94411.97;;;22.37;42.95
61345;BME280;47216;42.656;23.232;2022-10-31T12:25:39;94420.91;;;22.50;42.12
61345;BME280;47216;42.656;23.232;2022-10-31T12:31:33;94408.91;;;22.61;41.63
61345;BME280;47216;42.656;23.232;2022-10-31T12:34:24;94409.06;;;22.56;41.85
61345;BME280;47216;42.656;23.232;2022-10-31T12:37:02;94409.56;;;22.67;41.51
61345;BME280;47216;42.656;23.232;2022-10-31T12:39:37;94408.75;;;22.66;40.96
61345;BME280;47216;42.656;23.232;2022-10-31T12:42:16;94407.16;;;22.57;41.42
61345;BME280;47216;42.656;23.232;2022-10-31T12:45:01;94407.34;;;22.60;41.70
61345;BME280;47216;42.656;23.232;2022-10-31T12:47:44;94412.66;;;22.60;42.18
61345;BME280;47216;42.656;23.232;2022-10-31T12:50:21;94415.13;;;22.48;42.72
61345;BME280;47216;42.656;23.232;2022-10-31T12:53:00;94409.13;;;22.34;42.53
61345;BME280;47216;42.656;23.232;2022-10-31T12:55:40;94404.41;;;22.22;42.78
61345;BME280;47216;42.656;23.232;2022-10-31T12:58:13;94414.38;;;22.16;43.29
61345;BME280;47216;42.656;23.232;2022-10-31T13:00:44;94412.88;;;22.01;43.98
61345;BME280;47216;42.656;23.232;2022-10-31T13:03:21;94412.22;;;21.96;44.35
61345;BME280;47216;42.656;23.232;2022-10-31T13:05:53;94410.91;;;21.85;45.08
61345;BME280;47216;42.656;23.232;2022-10-31T13:08:25;94415.53;;;21.70;45.47
61345;BME280;47216;42.656;23.232;2022-10-31T13:11:00;94417.00;;;21.54;46.25
61345;BME280;47216;42.656;23.232;2022-10-31T13:13:34;94412.41;;;21.46;46.54
61345;BME280;47216;42.656;23.232;2022-10-31T13:16:07;94413.97;;;21.47;46.25
61345;BME280;47216;42.656;23.232;2022-10-31T13:18:42;94410.09;;;21.53;46.29